Seven Lakes, North Carolina
Current Conditions -  °F | °C
As of 8:55 PM on Sunday 21 Dec 2014 (Local Time) from KSOP Reporting Station
Overcast Overcast  
Wind Chill: 40°   Ceiling: 4600
Heat Index: 45°   Visibility: 10mi
Dew Point: 36°   Wind: 8mph
Humidity: 71%   Direction: 80°E
Pressure: 30.22"   Gusts: NA
Location:  35.2431°N, 79.5385°W
Report Text: KSOP 220155Z AUTO 08007KT 10SM OVC046 07/02 A3022 RMK AO1
Loading
Personal Weather Stations






























Interactive Weather Map New forecast layout! Learn more

10-Day Weather Forecast

Advertisements
Track Severe Weather on mobile